This is the latest recevied weather packets stored in our database for station/object F6BIJ-13. If no packets are shown the sender has not sent any weather packets the latest 10 day(s).
| Time | Temp. | Humidity | Pressure | Rain* | Wind** | Luminosity | Snow |
|---|---|---|---|---|---|---|---|
| 1777875517 | 12.22° C | 96% | 1015.5 hPa | 0 mm | - | - | - |
| 1777875157 | 12.22° C | 96% | 1015.5 hPa | 0 mm | - | - | - |
| 1777874797 | 12.22° C | 96% | 1015.4 hPa | 0 mm | - | - | - |
| 1777874437 | 12.22° C | 96% | 1015.4 hPa | 0 mm | - | - | - |
| 1777849597 | 12.78° C | 83% | 1016.7 hPa | 0 mm | - | - | - |
| 1777849237 | 12.22° C | 83% | 1016.8 hPa | 0 mm | - | - | - |
| 1777848877 | 12.22° C | 83% | 1016.8 hPa | 0 mm | - | - | - |
| 1777848516 | 12.22° C | 84% | 1016.8 hPa | 0 mm | - | - | - |
| 1777848157 | 12.22° C | 85% | 1016.8 hPa | 0 mm | - | - | - |
| 1777847797 | 12.22° C | 84% | 1016.7 hPa | 0 mm | - | - | - |
| 1777847437 | 12.22° C | 84% | 1016.6 hPa | 0 mm | - | - | - |
| 1777847077 | 12.78° C | 84% | 1016.6 hPa | 0 mm | - | - | - |
| 1777846717 | 12.22° C | 84% | 1016.7 hPa | 0 mm | - | - | - |
| 1777846357 | 12.78° C | 84% | 1016.6 hPa | 0 mm | - | - | - |
| 1777845997 | 12.78° C | 83% | 1016.6 hPa | 0 mm | - | - | - |
| 1777845637 | 12.22° C | 84% | 1016.6 hPa | 0 mm | - | - | - |
| 1777845277 | 12.78° C | 82% | 1016.6 hPa | 0 mm | - | - | - |
| 1777844917 | 12.22° C | 82% | 1016.6 hPa | 0 mm | - | - | - |
| 1777844557 | 12.22° C | 84% | 1016.7 hPa | 0 mm | - | - | - |
| 1777844197 | 12.22° C | 84% | 1016.5 hPa | 0 mm | - | - | - |
| 1777843837 | 12.22° C | 84% | 1016.5 hPa | 0 mm | - | - | - |
| 1777843477 | 12.22° C | 83% | 1016.4 hPa | 0 mm | - | - | - |
| 1777843117 | 12.22° C | 84% | 1016.5 hPa | 0 mm | - | - | - |
| 1777842757 | 12.22° C | 83% | 1016.4 hPa | 0 mm | - | - | - |
| 1777842397 | 11.67° C | 83% | 1016.5 hPa | 0 mm | - | - | - |
* Rain latest 24 hours (hover to see other rain measurements)
** Current wind speed in m/s (hover to see current wind gust speed)